Richmond, Virginia
Current Conditions -  °F | °C
As of 5:54 PM on Monday 24 Nov 2014 (Local Time) from KRIC Reporting Station
Scattered Clouds Scattered Clouds  
Wind Chill: 69°   Ceiling: Unl
Heat Index: 69°   Visibility: 10mi
Dew Point: 60°   Wind: 13mph
Humidity: 73%   Direction: 200°SSW
Pressure: 29.73"   Gusts: NA
Location:  37.54°N, 77.43°W
Report Text: KRIC 242254Z 20011KT 10SM FEW040 SCT120 SCT300 21/16 A2973 RMK AO2 SLP070 T02060156
Loading
Personal Weather Stations






























Interactive Weather Map New forecast layout! Learn more

10-Day Weather Forecast

Advertisements
Track Severe Weather on mobile